sensor_id;sensor_type;location;lat;lon;timestamp;P1;durP1;ratioP1;P2;durP2;ratioP2
51179;SDS011;37243;49.814;8.652;2022-07-09T00:02:02;1.33;;;1.23;;
51179;SDS011;37243;49.814;8.652;2022-07-09T00:04:34;1.00;;;1.00;;
51179;SDS011;37243;49.814;8.652;2022-07-09T00:07:02;0.90;;;0.90;;
51179;SDS011;37243;49.814;8.652;2022-07-09T00:09:31;0.90;;;0.85;;
51179;SDS011;37243;49.814;8.652;2022-07-09T00:11:59;1.73;;;0.98;;
51179;SDS011;37243;49.814;8.652;2022-07-09T00:14:28;1.10;;;1.00;;
51179;SDS011;37243;49.814;8.652;2022-07-09T00:16:57;1.10;;;1.10;;
51179;SDS011;37243;49.814;8.652;2022-07-09T00:19:25;1.10;;;0.98;;
51179;SDS011;37243;49.814;8.652;2022-07-09T00:21:56;1.38;;;1.00;;
51179;SDS011;37243;49.814;8.652;2022-07-09T00:24:25;1.80;;;0.90;;
51179;SDS011;37243;49.814;8.652;2022-07-09T00:26:53;1.02;;;0.90;;
51179;SDS011;37243;49.814;8.652;2022-07-09T00:29:21;2.50;;;1.17;;
51179;SDS011;37243;49.814;8.652;2022-07-09T00:31:50;0.80;;;0.80;;
51179;SDS011;37243;49.814;8.652;2022-07-09T00:34:18;2.60;;;1.02;;
51179;SDS011;37243;49.814;8.652;2022-07-09T00:36:47;1.17;;;1.10;;
51179;SDS011;37243;49.814;8.652;2022-07-09T00:39:17;0.95;;;0.93;;
51179;SDS011;37243;49.814;8.652;2022-07-09T00:41:46;0.93;;;0.90;;
51179;SDS011;37243;49.814;8.652;2022-07-09T00:44:14;1.52;;;1.00;;
51179;SDS011;37243;49.814;8.652;2022-07-09T00:46:42;1.13;;;0.80;;
51179;SDS011;37243;49.814;8.652;2022-07-09T00:49:11;1.00;;;0.93;;
51179;SDS011;37243;49.814;8.652;2022-07-09T00:51:39;0.82;;;0.82;;
51179;SDS011;37243;49.814;8.652;2022-07-09T00:54:08;0.80;;;0.80;;
51179;SDS011;37243;49.814;8.652;2022-07-09T00:56:39;0.80;;;0.80;;
51179;SDS011;37243;49.814;8.652;2022-07-09T00:59:08;1.25;;;1.13;;
51179;SDS011;37243;49.814;8.652;2022-07-09T01:01:38;1.10;;;0.93;;
51179;SDS011;37243;49.814;8.652;2022-07-09T01:04:07;0.93;;;0.93;;
51179;SDS011;37243;49.814;8.652;2022-07-09T01:06:35;1.80;;;0.90;;
51179;SDS011;37243;49.814;8.652;2022-07-09T01:09:03;1.65;;;1.10;;
51179;SDS011;37243;49.814;8.652;2022-07-09T01:11:32;1.00;;;0.90;;
51179;SDS011;37243;49.814;8.652;2022-07-09T01:14:03;1.02;;;0.95;;
51179;SDS011;37243;49.814;8.652;2022-07-09T01:16:32;1.00;;;1.00;;
51179;SDS011;37243;49.814;8.652;2022-07-09T01:19:02;1.30;;;1.10;;
51179;SDS011;37243;49.814;8.652;2022-07-09T01:21:34;1.40;;;0.88;;
51179;SDS011;37243;49.814;8.652;2022-07-09T01:24:02;1.25;;;1.10;;
51179;SDS011;37243;49.814;8.652;2022-07-09T01:26:31;5.88;;;1.00;;
51179;SDS011;37243;49.814;8.652;2022-07-09T01:29:01;1.05;;;0.98;;
51179;SDS011;37243;49.814;8.652;2022-07-09T01:31:29;0.80;;;0.80;;
51179;SDS011;37243;49.814;8.652;2022-07-09T01:33:57;0.85;;;0.85;;
51179;SDS011;37243;49.814;8.652;2022-07-09T01:36:26;1.35;;;1.00;;
51179;SDS011;37243;49.814;8.652;2022-07-09T01:38:57;1.00;;;0.90;;
51179;SDS011;37243;49.814;8.652;2022-07-09T01:41:25;0.90;;;0.90;;
51179;SDS011;37243;49.814;8.652;2022-07-09T01:43:53;0.82;;;0.82;;
51179;SDS011;37243;49.814;8.652;2022-07-09T01:46:21;0.80;;;0.80;;
51179;SDS011;37243;49.814;8.652;2022-07-09T01:48:50;0.80;;;0.80;;
51179;SDS011;37243;49.814;8.652;2022-07-09T01:51:18;3.53;;;0.80;;
51179;SDS011;37243;49.814;8.652;2022-07-09T01:53:47;2.30;;;1.10;;
51179;SDS011;37243;49.814;8.652;2022-07-09T01:56:18;0.77;;;0.77;;
51179;SDS011;37243;49.814;8.652;2022-07-09T01:58:46;1.70;;;1.08;;
51179;SDS011;37243;49.814;8.652;2022-07-09T02:01:15;1.63;;;0.98;;
51179;SDS011;37243;49.814;8.652;2022-07-09T02:03:43;0.90;;;0.85;;
51179;SDS011;37243;49.814;8.652;2022-07-09T02:06:11;2.50;;;0.90;;
51179;SDS011;37243;49.814;8.652;2022-07-09T02:08:40;0.65;;;0.65;;
51179;SDS011;37243;49.814;8.652;2022-07-09T02:11:08;1.55;;;1.10;;
51179;SDS011;37243;49.814;8.652;2022-07-09T02:13:39;0.90;;;0.90;;
51179;SDS011;37243;49.814;8.652;2022-07-09T02:16:07;0.80;;;0.77;;
51179;SDS011;37243;49.814;8.652;2022-07-09T02:18:36;1.10;;;1.00;;
51179;SDS011;37243;49.814;8.652;2022-07-09T02:21:04;1.00;;;1.00;;
51179;SDS011;37243;49.814;8.652;2022-07-09T02:23:32;0.70;;;0.70;;
51179;SDS011;37243;49.814;8.652;2022-07-09T02:26:01;1.60;;;0.70;;
51179;SDS011;37243;49.814;8.652;2022-07-09T02:28:29;1.98;;;1.10;;
51179;SDS011;37243;49.814;8.652;2022-07-09T02:31:00;2.65;;;0.98;;
51179;SDS011;37243;49.814;8.652;2022-07-09T02:33:28;0.82;;;0.80;;
51179;SDS011;37243;49.814;8.652;2022-07-09T02:35:57;0.90;;;0.90;;
51179;SDS011;37243;49.814;8.652;2022-07-09T02:38:26;0.90;;;0.90;;
51179;SDS011;37243;49.814;8.652;2022-07-09T02:40:54;1.05;;;0.63;;
51179;SDS011;37243;49.814;8.652;2022-07-09T02:43:22;0.88;;;0.80;;
51179;SDS011;37243;49.814;8.652;2022-07-09T02:45:51;1.98;;;0.93;;
51179;SDS011;37243;49.814;8.652;2022-07-09T02:48:23;0.70;;;0.70;;
51179;SDS011;37243;49.814;8.652;2022-07-09T02:50:51;0.77;;;0.77;;
51179;SDS011;37243;49.814;8.652;2022-07-09T02:53:20;0.93;;;0.93;;
51179;SDS011;37243;49.814;8.652;2022-07-09T02:55:49;1.00;;;0.90;;
51179;SDS011;37243;49.814;8.652;2022-07-09T02:58:17;1.17;;;1.00;;
51179;SDS011;37243;49.814;8.652;2022-07-09T03:00:46;1.15;;;1.05;;
51179;SDS011;37243;49.814;8.652;2022-07-09T03:03:14;1.00;;;0.90;;
51179;SDS011;37243;49.814;8.652;2022-07-09T03:05:45;0.82;;;0.82;;
51179;SDS011;37243;49.814;8.652;2022-07-09T03:08:14;0.90;;;0.90;;
51179;SDS011;37243;49.814;8.652;2022-07-09T03:10:43;1.50;;;0.90;;
51179;SDS011;37243;49.814;8.652;2022-07-09T03:13:11;0.80;;;0.80;;
51179;SDS011;37243;49.814;8.652;2022-07-09T03:15:39;0.77;;;0.77;;
51179;SDS011;37243;49.814;8.652;2022-07-09T03:18:08;0.80;;;0.80;;
51179;SDS011;37243;49.814;8.652;2022-07-09T03:20:36;0.88;;;0.88;;
51179;SDS011;37243;49.814;8.652;2022-07-09T03:23:07;1.40;;;0.90;;
51179;SDS011;37243;49.814;8.652;2022-07-09T03:25:38;1.00;;;0.80;;
51179;SDS011;37243;49.814;8.652;2022-07-09T03:28:06;0.80;;;0.80;;
51179;SDS011;37243;49.814;8.652;2022-07-09T03:30:34;0.80;;;0.80;;
51179;SDS011;37243;49.814;8.652;2022-07-09T03:33:03;0.93;;;0.93;;
51179;SDS011;37243;49.814;8.652;2022-07-09T03:35:31;1.83;;;0.82;;
51179;SDS011;37243;49.814;8.652;2022-07-09T03:37:59;0.90;;;0.90;;
51179;SDS011;37243;49.814;8.652;2022-07-09T03:40:30;0.85;;;0.85;;
51179;SDS011;37243;49.814;8.652;2022-07-09T03:42:59;0.98;;;0.82;;
51179;SDS011;37243;49.814;8.652;2022-07-09T03:45:27;1.15;;;0.88;;
51179;SDS011;37243;49.814;8.652;2022-07-09T03:47:55;1.20;;;1.10;;
51179;SDS011;37243;49.814;8.652;2022-07-09T03:50:24;0.95;;;0.90;;
51179;SDS011;37243;49.814;8.652;2022-07-09T03:52:52;0.80;;;0.80;;
51179;SDS011;37243;49.814;8.652;2022-07-09T03:55:21;0.70;;;0.70;;
51179;SDS011;37243;49.814;8.652;2022-07-09T03:57:51;1.00;;;0.93;;
51179;SDS011;37243;49.814;8.652;2022-07-09T04:00:20;0.60;;;0.60;;
51179;SDS011;37243;49.814;8.652;2022-07-09T04:02:48;0.80;;;0.80;;
51179;SDS011;37243;49.814;8.652;2022-07-09T04:05:16;0.88;;;0.88;;
51179;SDS011;37243;49.814;8.652;2022-07-09T04:07:45;0.88;;;0.88;;
51179;SDS011;37243;49.814;8.652;2022-07-09T04:10:14;0.70;;;0.70;;
51179;SDS011;37243;49.814;8.652;2022-07-09T04:12:42;0.80;;;0.80;;
51179;SDS011;37243;49.814;8.652;2022-07-09T04:15:13;0.65;;;0.65;;
51179;SDS011;37243;49.814;8.652;2022-07-09T04:17:41;0.90;;;0.90;;
51179;SDS011;37243;49.814;8.652;2022-07-09T04:20:10;1.38;;;0.90;;
51179;SDS011;37243;49.814;8.652;2022-07-09T04:22:39;1.17;;;0.93;;
51179;SDS011;37243;49.814;8.652;2022-07-09T04:25:07;0.77;;;0.77;;
51179;SDS011;37243;49.814;8.652;2022-07-09T04:27:36;0.85;;;0.85;;
51179;SDS011;37243;49.814;8.652;2022-07-09T04:30:05;0.85;;;0.85;;
51179;SDS011;37243;49.814;8.652;2022-07-09T04:32:37;1.20;;;0.70;;
51179;SDS011;37243;49.814;8.652;2022-07-09T04:35:05;0.90;;;0.88;;
51179;SDS011;37243;49.814;8.652;2022-07-09T04:37:34;0.77;;;0.70;;
51179;SDS011;37243;49.814;8.652;2022-07-09T04:40:03;1.05;;;1.02;;
51179;SDS011;37243;49.814;8.652;2022-07-09T04:42:33;0.73;;;0.73;;
51179;SDS011;37243;49.814;8.652;2022-07-09T04:45:01;0.80;;;0.80;;
51179;SDS011;37243;49.814;8.652;2022-07-09T04:47:30;1.17;;;0.73;;
51179;SDS011;37243;49.814;8.652;2022-07-09T04:50:01;0.77;;;0.75;;
51179;SDS011;37243;49.814;8.652;2022-07-09T04:52:29;0.80;;;0.80;;
51179;SDS011;37243;49.814;8.652;2022-07-09T04:54:58;1.20;;;1.02;;
51179;SDS011;37243;49.814;8.652;2022-07-09T04:57:26;1.00;;;0.90;;
51179;SDS011;37243;49.814;8.652;2022-07-09T04:59:57;0.80;;;0.80;;
51179;SDS011;37243;49.814;8.652;2022-07-09T05:02:28;0.63;;;0.63;;
51179;SDS011;37243;49.814;8.652;2022-07-09T05:04:57;0.80;;;0.80;;
51179;SDS011;37243;49.814;8.652;2022-07-09T05:07:28;0.90;;;0.90;;
51179;SDS011;37243;49.814;8.652;2022-07-09T05:09:56;1.52;;;0.75;;
51179;SDS011;37243;49.814;8.652;2022-07-09T05:12:25;0.88;;;0.80;;
51179;SDS011;37243;49.814;8.652;2022-07-09T05:14:53;0.80;;;0.80;;
51179;SDS011;37243;49.814;8.652;2022-07-09T05:17:22;0.70;;;0.70;;
51179;SDS011;37243;49.814;8.652;2022-07-09T05:19:51;1.00;;;0.90;;
51179;SDS011;37243;49.814;8.652;2022-07-09T05:22:19;0.80;;;0.80;;
51179;SDS011;37243;49.814;8.652;2022-07-09T05:24:50;0.80;;;0.80;;
51179;SDS011;37243;49.814;8.652;2022-07-09T05:27:19;0.93;;;0.93;;
51179;SDS011;37243;49.814;8.652;2022-07-09T05:29:47;1.05;;;0.80;;
51179;SDS011;37243;49.814;8.652;2022-07-09T05:32:15;0.70;;;0.70;;
51179;SDS011;37243;49.814;8.652;2022-07-09T05:34:44;0.80;;;0.80;;
51179;SDS011;37243;49.814;8.652;2022-07-09T05:37:12;1.42;;;0.77;;
51179;SDS011;37243;49.814;8.652;2022-07-09T05:39:41;1.45;;;0.93;;
51179;SDS011;37243;49.814;8.652;2022-07-09T05:42:11;1.00;;;0.90;;
51179;SDS011;37243;49.814;8.652;2022-07-09T05:44:40;1.00;;;0.98;;
51179;SDS011;37243;49.814;8.652;2022-07-09T05:47:08;1.17;;;0.93;;
51179;SDS011;37243;49.814;8.652;2022-07-09T05:49:37;2.08;;;0.82;;
51179;SDS011;37243;49.814;8.652;2022-07-09T05:52:05;0.70;;;0.70;;
51179;SDS011;37243;49.814;8.652;2022-07-09T05:54:34;0.70;;;0.70;;
51179;SDS011;37243;49.814;8.652;2022-07-09T05:57:03;0.73;;;0.73;;
51179;SDS011;37243;49.814;8.652;2022-07-09T05:59:34;0.80;;;0.80;;
51179;SDS011;37243;49.814;8.652;2022-07-09T06:02:03;1.15;;;0.88;;
51179;SDS011;37243;49.814;8.652;2022-07-09T06:04:32;0.80;;;0.80;;
51179;SDS011;37243;49.814;8.652;2022-07-09T06:07:03;1.10;;;0.80;;
51179;SDS011;37243;49.814;8.652;2022-07-09T06:09:34;0.70;;;0.70;;
51179;SDS011;37243;49.814;8.652;2022-07-09T06:12:03;1.52;;;0.82;;
51179;SDS011;37243;49.814;8.652;2022-07-09T06:14:35;0.60;;;0.60;;
51179;SDS011;37243;49.814;8.652;2022-07-09T06:17:04;0.80;;;0.80;;
51179;SDS011;37243;49.814;8.652;2022-07-09T06:19:33;0.77;;;0.70;;
51179;SDS011;37243;49.814;8.652;2022-07-09T06:22:05;1.48;;;0.75;;
51179;SDS011;37243;49.814;8.652;2022-07-09T06:24:33;1.20;;;0.50;;
51179;SDS011;37243;49.814;8.652;2022-07-09T06:27:02;2.50;;;0.70;;
51179;SDS011;37243;49.814;8.652;2022-07-09T06:29:30;0.80;;;0.80;;
51179;SDS011;37243;49.814;8.652;2022-07-09T06:32:01;0.70;;;0.70;;
51179;SDS011;37243;49.814;8.652;2022-07-09T06:34:30;2.58;;;0.60;;
51179;SDS011;37243;49.814;8.652;2022-07-09T06:36:58;0.70;;;0.70;;
51179;SDS011;37243;49.814;8.652;2022-07-09T06:39:26;1.45;;;0.57;;
51179;SDS011;37243;49.814;8.652;2022-07-09T06:42:10;2.70;;;0.75;;
51179;SDS011;37243;49.814;8.652;2022-07-09T06:44:39;1.83;;;0.90;;
51179;SDS011;37243;49.814;8.652;2022-07-09T06:47:11;4.30;;;0.80;;
51179;SDS011;37243;49.814;8.652;2022-07-09T06:49:39;2.80;;;1.08;;
51179;SDS011;37243;49.814;8.652;2022-07-09T06:52:08;1.88;;;1.10;;
51179;SDS011;37243;49.814;8.652;2022-07-09T06:54:36;2.85;;;1.02;;
51179;SDS011;37243;49.814;8.652;2022-07-09T06:57:05;2.92;;;1.08;;
51179;SDS011;37243;49.814;8.652;2022-07-09T06:59:35;4.50;;;1.33;;
51179;SDS011;37243;49.814;8.652;2022-07-09T07:02:04;1.92;;;1.17;;
51179;SDS011;37243;49.814;8.652;2022-07-09T07:04:35;7.22;;;1.27;;
51179;SDS011;37243;49.814;8.652;2022-07-09T07:07:04;5.38;;;1.00;;
51179;SDS011;37243;49.814;8.652;2022-07-09T07:09:32;5.13;;;1.05;;
51179;SDS011;37243;49.814;8.652;2022-07-09T07:12:01;2.80;;;1.00;;
51179;SDS011;37243;49.814;8.652;2022-07-09T07:14:30;2.17;;;1.08;;
51179;SDS011;37243;49.814;8.652;2022-07-09T07:16:58;1.88;;;1.10;;
51179;SDS011;37243;49.814;8.652;2022-07-09T07:19:27;4.95;;;1.13;;
51179;SDS011;37243;49.814;8.652;2022-07-09T07:21:58;2.60;;;1.00;;
51179;SDS011;37243;49.814;8.652;2022-07-09T07:24:26;3.35;;;1.20;;
51179;SDS011;37243;49.814;8.652;2022-07-09T07:26:55;2.15;;;1.00;;
51179;SDS011;37243;49.814;8.652;2022-07-09T07:29:24;3.20;;;1.30;;
51179;SDS011;37243;49.814;8.652;2022-07-09T07:31:52;1.00;;;0.90;;
51179;SDS011;37243;49.814;8.652;2022-07-09T07:34:21;2.30;;;1.10;;
51179;SDS011;37243;49.814;8.652;2022-07-09T07:36:50;1.48;;;0.95;;
51179;SDS011;37243;49.814;8.652;2022-07-09T07:39:22;2.55;;;1.30;;
51179;SDS011;37243;49.814;8.652;2022-07-09T07:41:51;2.75;;;1.05;;
51179;SDS011;37243;49.814;8.652;2022-07-09T07:44:20;1.23;;;0.93;;
51179;SDS011;37243;49.814;8.652;2022-07-09T07:46:49;3.85;;;1.30;;
51179;SDS011;37243;49.814;8.652;2022-07-09T07:49:17;3.85;;;1.17;;
51179;SDS011;37243;49.814;8.652;2022-07-09T07:51:46;3.33;;;1.20;;
51179;SDS011;37243;49.814;8.652;2022-07-09T07:54:14;1.48;;;1.27;;
51179;SDS011;37243;49.814;8.652;2022-07-09T07:56:45;2.05;;;1.00;;
51179;SDS011;37243;49.814;8.652;2022-07-09T07:59:15;1.52;;;1.10;;
51179;SDS011;37243;49.814;8.652;2022-07-09T08:01:43;2.30;;;1.20;;
51179;SDS011;37243;49.814;8.652;2022-07-09T08:04:12;1.50;;;1.10;;
51179;SDS011;37243;49.814;8.652;2022-07-09T08:06:40;3.78;;;0.95;;
51179;SDS011;37243;49.814;8.652;2022-07-09T08:09:08;1.20;;;0.82;;
51179;SDS011;37243;49.814;8.652;2022-07-09T08:11:37;1.30;;;1.20;;
51179;SDS011;37243;49.814;8.652;2022-07-09T08:14:08;0.90;;;0.90;;
51179;SDS011;37243;49.814;8.652;2022-07-09T08:16:36;1.92;;;1.00;;
51179;SDS011;37243;49.814;8.652;2022-07-09T08:19:05;1.98;;;1.10;;
51179;SDS011;37243;49.814;8.652;2022-07-09T08:21:33;2.67;;;1.10;;
51179;SDS011;37243;49.814;8.652;2022-07-09T08:24:02;1.42;;;1.02;;
51179;SDS011;37243;49.814;8.652;2022-07-09T08:26:33;1.48;;;0.93;;
51179;SDS011;37243;49.814;8.652;2022-07-09T08:29:01;2.03;;;1.20;;
51179;SDS011;37243;49.814;8.652;2022-07-09T08:31:32;4.72;;;1.30;;
51179;SDS011;37243;49.814;8.652;2022-07-09T08:34:01;4.32;;;1.02;;
51179;SDS011;37243;49.814;8.652;2022-07-09T08:36:29;2.65;;;1.25;;
51179;SDS011;37243;49.814;8.652;2022-07-09T08:38:58;1.75;;;0.98;;
51179;SDS011;37243;49.814;8.652;2022-07-09T08:41:26;4.25;;;1.17;;
51179;SDS011;37243;49.814;8.652;2022-07-09T08:43:54;2.70;;;1.65;;
51179;SDS011;37243;49.814;8.652;2022-07-09T08:46:23;4.68;;;1.45;;
51179;SDS011;37243;49.814;8.652;2022-07-09T08:48:53;4.80;;;1.23;;
51179;SDS011;37243;49.814;8.652;2022-07-09T08:51:23;3.72;;;1.50;;
51179;SDS011;37243;49.814;8.652;2022-07-09T08:53:52;4.15;;;1.40;;
51179;SDS011;37243;49.814;8.652;2022-07-09T08:56:22;7.78;;;1.65;;
51179;SDS011;37243;49.814;8.652;2022-07-09T08:58:50;5.40;;;1.30;;
51179;SDS011;37243;49.814;8.652;2022-07-09T09:01:18;3.42;;;1.58;;
51179;SDS011;37243;49.814;8.652;2022-07-09T09:03:47;7.35;;;1.70;;
51179;SDS011;37243;49.814;8.652;2022-07-09T09:06:21;5.60;;;1.70;;
51179;SDS011;37243;49.814;8.652;2022-07-09T09:08:53;8.10;;;1.73;;
51179;SDS011;37243;49.814;8.652;2022-07-09T09:11:22;10.30;;;1.90;;
51179;SDS011;37243;49.814;8.652;2022-07-09T09:13:53;9.27;;;1.50;;
51179;SDS011;37243;49.814;8.652;2022-07-09T09:16:23;11.00;;;1.70;;
51179;SDS011;37243;49.814;8.652;2022-07-09T09:18:52;8.07;;;1.77;;
51179;SDS011;37243;49.814;8.652;2022-07-09T09:21:24;5.85;;;1.73;;
51179;SDS011;37243;49.814;8.652;2022-07-09T09:23:54;5.45;;;1.77;;
51179;SDS011;37243;49.814;8.652;2022-07-09T09:26:27;5.97;;;1.73;;
51179;SDS011;37243;49.814;8.652;2022-07-09T09:28:58;7.65;;;2.08;;
51179;SDS011;37243;49.814;8.652;2022-07-09T09:31:28;5.13;;;1.70;;
51179;SDS011;37243;49.814;8.652;2022-07-09T09:33:58;7.78;;;1.70;;
51179;SDS011;37243;49.814;8.652;2022-07-09T09:36:41;12.10;;;1.77;;
51179;SDS011;37243;49.814;8.652;2022-07-09T09:39:14;6.07;;;1.70;;
51179;SDS011;37243;49.814;8.652;2022-07-09T09:41:44;4.30;;;1.77;;
51179;SDS011;37243;49.814;8.652;2022-07-09T09:44:14;5.50;;;1.30;;
51179;SDS011;37243;49.814;8.652;2022-07-09T09:46:44;4.07;;;1.30;;
51179;SDS011;37243;49.814;8.652;2022-07-09T09:49:14;7.10;;;1.63;;
51179;SDS011;37243;49.814;8.652;2022-07-09T09:51:49;3.97;;;1.70;;
51179;SDS011;37243;49.814;8.652;2022-07-09T09:54:20;6.38;;;1.70;;
51179;SDS011;37243;49.814;8.652;2022-07-09T09:56:49;5.10;;;1.70;;
51179;SDS011;37243;49.814;8.652;2022-07-09T09:59:18;4.97;;;1.50;;
51179;SDS011;37243;49.814;8.652;2022-07-09T10:01:46;2.70;;;1.35;;
51179;SDS011;37243;49.814;8.652;2022-07-09T10:04:15;6.70;;;1.90;;
51179;SDS011;37243;49.814;8.652;2022-07-09T10:06:44;2.42;;;1.65;;
51179;SDS011;37243;49.814;8.652;2022-07-09T10:09:16;6.88;;;2.03;;
51179;SDS011;37243;49.814;8.652;2022-07-09T10:11:45;2.33;;;1.30;;
51179;SDS011;37243;49.814;8.652;2022-07-09T10:14:15;6.30;;;1.83;;
51179;SDS011;37243;49.814;8.652;2022-07-09T10:16:45;6.13;;;1.98;;
51179;SDS011;37243;49.814;8.652;2022-07-09T10:19:21;2.88;;;1.73;;
51179;SDS011;37243;49.814;8.652;2022-07-09T10:21:51;4.00;;;1.90;;
51179;SDS011;37243;49.814;8.652;2022-07-09T10:24:27;4.05;;;1.98;;
51179;SDS011;37243;49.814;8.652;2022-07-09T10:27:03;3.63;;;1.60;;
51179;SDS011;37243;49.814;8.652;2022-07-09T10:29:33;3.28;;;1.60;;
51179;SDS011;37243;49.814;8.652;2022-07-09T10:32:03;2.17;;;1.40;;
51179;SDS011;37243;49.814;8.652;2022-07-09T10:37:35;5.57;;;1.85;;
51179;SDS011;37243;49.814;8.652;2022-07-09T10:40:12;2.50;;;1.80;;
51179;SDS011;37243;49.814;8.652;2022-07-09T10:42:42;3.47;;;2.08;;
51179;SDS011;37243;49.814;8.652;2022-07-09T10:45:15;2.63;;;1.30;;
51179;SDS011;37243;49.814;8.652;2022-07-09T10:47:53;2.72;;;1.60;;
51179;SDS011;37243;49.814;8.652;2022-07-09T10:50:23;1.92;;;1.40;;
51179;SDS011;37243;49.814;8.652;2022-07-09T10:52:53;2.80;;;1.67;;
51179;SDS011;37243;49.814;8.652;2022-07-09T10:55:26;3.10;;;1.42;;
51179;SDS011;37243;49.814;8.652;2022-07-09T10:57:56;3.17;;;1.40;;
51179;SDS011;37243;49.814;8.652;2022-07-09T11:00:27;1.60;;;1.27;;
51179;SDS011;37243;49.814;8.652;2022-07-09T11:02:57;2.58;;;1.45;;
51179;SDS011;37243;49.814;8.652;2022-07-09T11:05:31;3.97;;;1.25;;
51179;SDS011;37243;49.814;8.652;2022-07-09T11:08:03;2.88;;;1.40;;
51179;SDS011;37243;49.814;8.652;2022-07-09T11:10:35;2.83;;;1.48;;
51179;SDS011;37243;49.814;8.652;2022-07-09T11:13:05;3.85;;;1.63;;
51179;SDS011;37243;49.814;8.652;2022-07-09T11:15:35;2.28;;;1.50;;
51179;SDS011;37243;49.814;8.652;2022-07-09T11:18:05;1.60;;;1.50;;
51179;SDS011;37243;49.814;8.652;2022-07-09T11:20:37;6.00;;;1.42;;
51179;SDS011;37243;49.814;8.652;2022-07-09T11:23:07;2.67;;;1.38;;
51179;SDS011;37243;49.814;8.652;2022-07-09T11:25:39;2.55;;;1.42;;
51179;SDS011;37243;49.814;8.652;2022-07-09T11:28:08;3.72;;;1.50;;
51179;SDS011;37243;49.814;8.652;2022-07-09T11:30:45;3.78;;;1.83;;
51179;SDS011;37243;49.814;8.652;2022-07-09T11:33:25;5.82;;;1.70;;
51179;SDS011;37243;49.814;8.652;2022-07-09T11:36:14;4.65;;;1.38;;
51179;SDS011;37243;49.814;8.652;2022-07-09T11:38:46;3.42;;;1.60;;
51179;SDS011;37243;49.814;8.652;2022-07-09T11:41:17;4.22;;;1.67;;
51179;SDS011;37243;49.814;8.652;2022-07-09T11:43:46;2.10;;;1.55;;
51179;SDS011;37243;49.814;8.652;2022-07-09T11:46:16;2.45;;;1.42;;
51179;SDS011;37243;49.814;8.652;2022-07-09T11:48:48;3.40;;;1.40;;
51179;SDS011;37243;49.814;8.652;2022-07-09T11:51:26;1.40;;;1.30;;
51179;SDS011;37243;49.814;8.652;2022-07-09T11:53:54;2.42;;;1.35;;
51179;SDS011;37243;49.814;8.652;2022-07-09T11:56:25;1.98;;;1.38;;
51179;SDS011;37243;49.814;8.652;2022-07-09T11:58:54;1.58;;;1.48;;
51179;SDS011;37243;49.814;8.652;2022-07-09T12:01:23;1.38;;;1.20;;
51179;SDS011;37243;49.814;8.652;2022-07-09T12:03:52;4.57;;;1.73;;
51179;SDS011;37243;49.814;8.652;2022-07-09T12:06:21;3.00;;;1.40;;
51179;SDS011;37243;49.814;8.652;2022-07-09T12:08:57;1.27;;;1.17;;
51179;SDS011;37243;49.814;8.652;2022-07-09T12:11:29;1.38;;;1.23;;
51179;SDS011;37243;49.814;8.652;2022-07-09T12:13:58;2.28;;;1.15;;
51179;SDS011;37243;49.814;8.652;2022-07-09T12:16:26;2.00;;;1.52;;
51179;SDS011;37243;49.814;8.652;2022-07-09T12:18:55;1.75;;;1.27;;
51179;SDS011;37243;49.814;8.652;2022-07-09T12:21:24;1.38;;;1.27;;
51179;SDS011;37243;49.814;8.652;2022-07-09T12:23:52;1.67;;;1.30;;
51179;SDS011;37243;49.814;8.652;2022-07-09T12:26:21;1.35;;;1.30;;
51179;SDS011;37243;49.814;8.652;2022-07-09T12:28:52;3.88;;;1.30;;
51179;SDS011;37243;49.814;8.652;2022-07-09T12:31:20;1.70;;;1.45;;
51179;SDS011;37243;49.814;8.652;2022-07-09T12:33:48;2.03;;;1.52;;
51179;SDS011;37243;49.814;8.652;2022-07-09T12:36:20;1.83;;;1.50;;
51179;SDS011;37243;49.814;8.652;2022-07-09T12:38:51;2.70;;;1.35;;
51179;SDS011;37243;49.814;8.652;2022-07-09T12:41:20;5.10;;;1.45;;
51179;SDS011;37243;49.814;8.652;2022-07-09T12:43:48;1.52;;;1.42;;
51179;SDS011;37243;49.814;8.652;2022-07-09T12:46:21;2.45;;;1.40;;
51179;SDS011;37243;49.814;8.652;2022-07-09T12:48:50;1.38;;;1.23;;
51179;SDS011;37243;49.814;8.652;2022-07-09T12:51:18;2.47;;;1.40;;
51179;SDS011;37243;49.814;8.652;2022-07-09T12:53:46;2.55;;;1.15;;
51179;SDS011;37243;49.814;8.652;2022-07-09T12:56:15;1.30;;;1.20;;
51179;SDS011;37243;49.814;8.652;2022-07-09T12:58:43;1.50;;;1.30;;
51179;SDS011;37243;49.814;8.652;2022-07-09T13:01:12;1.50;;;1.40;;
51179;SDS011;37243;49.814;8.652;2022-07-09T13:03:43;2.17;;;1.20;;
51179;SDS011;37243;49.814;8.652;2022-07-09T13:06:11;3.10;;;1.30;;
51179;SDS011;37243;49.814;8.652;2022-07-09T13:08:52;1.40;;;1.17;;
51179;SDS011;37243;49.814;8.652;2022-07-09T13:11:20;1.45;;;1.30;;
51179;SDS011;37243;49.814;8.652;2022-07-09T13:13:49;2.15;;;1.42;;
51179;SDS011;37243;49.814;8.652;2022-07-09T13:16:17;2.08;;;1.33;;
51179;SDS011;37243;49.814;8.652;2022-07-09T13:18:48;1.75;;;1.30;;
51179;SDS011;37243;49.814;8.652;2022-07-09T13:21:17;2.65;;;1.40;;
51179;SDS011;37243;49.814;8.652;2022-07-09T13:23:46;1.23;;;1.17;;
51179;SDS011;37243;49.814;8.652;2022-07-09T13:26:15;2.10;;;1.40;;
51179;SDS011;37243;49.814;8.652;2022-07-09T13:28:45;3.25;;;1.48;;
51179;SDS011;37243;49.814;8.652;2022-07-09T13:31:13;2.15;;;1.30;;
51179;SDS011;37243;49.814;8.652;2022-07-09T13:33:42;2.90;;;1.40;;
51179;SDS011;37243;49.814;8.652;2022-07-09T13:36:13;1.92;;;1.27;;
51179;SDS011;37243;49.814;8.652;2022-07-09T13:38:41;2.72;;;1.20;;
51179;SDS011;37243;49.814;8.652;2022-07-09T13:41:09;1.75;;;1.17;;
51179;SDS011;37243;49.814;8.652;2022-07-09T13:43:38;2.08;;;1.25;;
51179;SDS011;37243;49.814;8.652;2022-07-09T13:46:06;1.48;;;1.27;;
51179;SDS011;37243;49.814;8.652;2022-07-09T13:48:34;1.42;;;1.33;;
51179;SDS011;37243;49.814;8.652;2022-07-09T13:51:03;1.85;;;1.40;;
51179;SDS011;37243;49.814;8.652;2022-07-09T13:53:34;2.67;;;1.73;;
51179;SDS011;37243;49.814;8.652;2022-07-09T13:56:03;1.35;;;1.25;;
51179;SDS011;37243;49.814;8.652;2022-07-09T13:58:32;1.63;;;1.20;;
51179;SDS011;37243;49.814;8.652;2022-07-09T14:01:00;1.30;;;1.20;;
51179;SDS011;37243;49.814;8.652;2022-07-09T14:03:31;1.52;;;1.42;;
51179;SDS011;37243;49.814;8.652;2022-07-09T14:05:59;1.40;;;1.30;;
51179;SDS011;37243;49.814;8.652;2022-07-09T14:08:27;2.40;;;1.30;;
51179;SDS011;37243;49.814;8.652;2022-07-09T14:10:58;1.80;;;1.17;;
51179;SDS011;37243;49.814;8.652;2022-07-09T14:13:27;1.35;;;1.25;;
51179;SDS011;37243;49.814;8.652;2022-07-09T14:15:55;3.45;;;1.25;;
51179;SDS011;37243;49.814;8.652;2022-07-09T14:18:25;3.47;;;1.30;;
51179;SDS011;37243;49.814;8.652;2022-07-09T14:20:54;2.58;;;1.00;;
51179;SDS011;37243;49.814;8.652;2022-07-09T14:23:22;3.80;;;1.10;;
51179;SDS011;37243;49.814;8.652;2022-07-09T14:25:50;1.38;;;1.23;;
51179;SDS011;37243;49.814;8.652;2022-07-09T14:28:21;1.20;;;1.20;;
51179;SDS011;37243;49.814;8.652;2022-07-09T14:30:50;2.80;;;1.38;;
51179;SDS011;37243;49.814;8.652;2022-07-09T14:33:18;2.75;;;1.13;;
51179;SDS011;37243;49.814;8.652;2022-07-09T14:35:46;2.45;;;1.30;;
51179;SDS011;37243;49.814;8.652;2022-07-09T14:38:15;1.83;;;1.25;;
51179;SDS011;37243;49.814;8.652;2022-07-09T14:40:43;1.10;;;1.10;;
51179;SDS011;37243;49.814;8.652;2022-07-09T14:43:11;1.52;;;1.10;;
51179;SDS011;37243;49.814;8.652;2022-07-09T14:45:43;1.33;;;1.23;;
51179;SDS011;37243;49.814;8.652;2022-07-09T14:48:11;3.25;;;1.27;;
51179;SDS011;37243;49.814;8.652;2022-07-09T14:50:39;1.40;;;1.30;;
51179;SDS011;37243;49.814;8.652;2022-07-09T14:53:08;1.10;;;1.02;;
51179;SDS011;37243;49.814;8.652;2022-07-09T14:55:36;1.35;;;1.25;;
51179;SDS011;37243;49.814;8.652;2022-07-09T14:58:05;0.88;;;0.88;;
51179;SDS011;37243;49.814;8.652;2022-07-09T15:00:33;2.13;;;1.30;;
51179;SDS011;37243;49.814;8.652;2022-07-09T15:03:04;0.98;;;0.93;;
51179;SDS011;37243;49.814;8.652;2022-07-09T15:05:36;1.10;;;1.00;;